Ettelbruck, Luxembourg
Current Conditions -  °F | °C
As of 3:20 PM on Thursday 18 Dec 2014 (Local Time) from ELLX Reporting Station
Drizzle Drizzle  
Wind Chill: 52°   Ceiling: 600
Heat Index: 52°   Visibility: 3mi
Dew Point: 52°   Wind: 16mph
Humidity: 100%   Direction: 250°WSW
Pressure: 29.97"   Gusts: NA
Location:  49.85°N, 6.1°E
Report Text: ELLX 181420Z 25014KT 230V290 5000 -DZ SCT005 BKN006 11/11 Q1015 TEMPO 25015G25KT 4000
Loading
Personal Weather Stations






























Interactive Weather Map New forecast layout! Learn more

10-Day Weather Forecast

Advertisements
Track Severe Weather on mobile